Time;durP1;ratioP1;P1;durP2;ratioP2;P2;SDS_P1;SDS_P2;PMS_P1;PMS_P2;Temp;Humidity;BMP_temperature;BMP_pressure;BME280_temperature;BME280_humidity;BME280_pressure;Samples;Min_cycle;Max_cycle;Signal;HPM_P1;HPM_P2
2024/01/26 00:01:42;;;;;;;9.23;2.60;;;;;;;8.33;100.00;100141.34;5058230;28;20025;-76
2024/01/26 00:04:08;;;;;;;12.27;2.40;;;;;;;8.32;100.00;100128.72;5058258;28;20035;-73
2024/01/26 00:06:33;;;;;;;8.65;2.33;;;;;;;8.04;100.00;100104.66;5054783;28;20059;-75
2024/01/26 00:09:09;;;;;;;8.10;2.42;;;;;;;7.98;100.00;100097.16;5057390;28;20029;-74
2024/01/26 00:11:34;;;;;;;10.38;2.83;;;;;;;8.38;100.00;100186.84;5056886;28;20025;-74
2024/01/26 00:13:59;;;;;;;7.75;2.03;;;;;;;8.33;100.00;100135.44;5061962;28;20033;-73
2024/01/26 00:16:25;;;;;;;5.22;2.15;;;;;;;8.48;100.00;100183.31;5060909;28;20121;-75
2024/01/26 00:18:50;;;;;;;9.52;2.72;;;;;;;8.49;100.00;100183.31;5059709;28;20047;-73
2024/01/26 00:21:18;;;;;;;8.93;2.60;;;;;;;7.86;100.00;100062.75;5062263;28;20027;-73
2024/01/26 00:23:44;;;;;;;8.18;2.50;;;;;;;8.23;100.00;100111.94;5061668;28;20037;-75
2024/01/26 00:26:12;;;;;;;9.65;2.63;;;;;;;8.86;100.00;100144.63;5060058;28;20110;-73
2024/01/26 00:28:38;;;;;;;8.25;2.20;;;;;;;8.25;100.00;99997.97;5058648;28;20082;-73
2024/01/26 00:31:03;;;;;;;7.13;2.08;;;;;;;8.69;100.00;100150.03;5059191;28;20738;-72
2024/01/26 00:33:28;;;;;;;9.85;2.15;;;;;;;7.57;100.00;99893.72;5059734;28;20033;-73
2024/01/26 00:35:54;;;;;;;9.80;2.38;;;;;;;8.64;100.00;100071.53;5063373;28;20039;-75
2024/01/26 00:38:19;;;;;;;9.27;2.30;;;;;;;8.69;100.00;100041.06;5062160;28;20032;-73
2024/01/26 00:40:45;;;;;;;10.57;2.38;;;;;;;8.16;100.00;99998.94;5061943;28;20032;-75
2024/01/26 00:43:10;;;;;;;6.18;2.10;;;;;;;8.61;100.00;100040.38;5062576;28;20060;-76
2024/01/26 00:45:36;;;;;;;10.90;2.58;;;;;;;8.42;100.00;100060.13;5069561;28;20101;-74
2024/01/26 00:48:01;;;;;;;8.82;2.20;;;;;;;8.48;100.00;100097.16;5060494;28;20423;-74
2024/01/26 00:50:27;;;;;;;8.77;2.13;;;;;;;7.89;100.00;99986.78;5062176;28;20165;-74
2024/01/26 00:52:52;;;;;;;9.98;2.25;;;;;;;8.54;100.00;100037.09;5058970;28;20033;-77
2024/01/26 00:55:18;;;;;;;9.68;2.42;;;;;;;8.60;100.00;100037.00;5057632;28;20048;-73
2024/01/26 00:57:43;;;;;;;10.88;2.55;;;;;;;8.14;100.00;99972.00;5061469;28;20037;-74
2024/01/26 01:00:09;;;;;;;7.15;2.13;;;;;;;7.72;100.00;99936.47;5053451;28;20033;-73
2024/01/26 01:02:34;;;;;;;8.77;2.10;;;;;;;8.32;100.00;100029.94;5060320;28;20036;-73
2024/01/26 01:05:01;;;;;;;9.02;2.20;;;;;;;8.25;100.00;100020.78;5058776;28;20037;-73
2024/01/26 01:07:27;;;;;;;12.45;2.20;;;;;;;8.25;100.00;99997.97;5059615;28;20032;-74
2024/01/26 01:09:52;;;;;;;7.50;2.20;;;;;;;8.23;100.00;100023.31;5057755;28;20044;-73
2024/01/26 01:12:18;;;;;;;8.55;2.63;;;;;;;8.29;100.00;100060.38;5062223;28;20040;-75
2024/01/26 01:14:44;;;;;;;8.82;1.92;;;;;;;8.16;100.00;100076.63;5059909;28;20033;-74
2024/01/26 01:17:11;;;;;;;7.50;2.15;;;;;;;7.75;100.00;99905.19;5065275;28;20040;-73
2024/01/26 01:19:37;;;;;;;10.48;2.42;;;;;;;7.11;100.00;99837.19;5053689;28;20515;-72
2024/01/26 01:22:02;;;;;;;8.35;2.63;;;;;;;8.19;100.00;100009.03;5062314;28;20036;-75
2024/01/26 01:24:28;;;;;;;11.10;2.80;;;;;;;7.58;100.00;99943.47;5066750;28;20024;-74
2024/01/26 01:26:53;;;;;;;7.65;2.30;;;;;;;8.18;100.00;100040.25;5061983;28;20072;-72
2024/01/26 01:29:19;;;;;;;8.00;2.13;;;;;;;8.18;100.00;100063.06;5059873;28;20040;-73
2024/01/26 01:31:44;;;;;;;8.10;2.10;;;;;;;7.59;100.00;99912.22;5062542;28;20024;-74
2024/01/26 01:34:10;;;;;;;10.38;2.33;;;;;;;7.61;100.00;99856.53;5057592;28;20040;-73
2024/01/26 01:36:35;;;;;;;10.38;2.03;;;;;;;7.79;100.00;99823.31;5060493;28;20497;-74
2024/01/26 01:39:01;;;;;;;7.93;2.00;;;;;;;8.34;100.00;99942.13;5056914;28;20032;-73
2024/01/26 01:41:26;;;;;;;6.03;1.75;;;;;;;8.44;100.00;99918.25;5061296;28;20063;-74
2024/01/26 01:43:56;;;;;;;6.45;2.22;;;;;;;7.85;100.00;99821.50;5060635;28;20126;-74
2024/01/26 01:46:22;;;;;;;9.27;2.15;;;;;;;8.31;100.00;99886.44;5061741;28;20060;-74
2024/01/26 01:48:49;;;;;;;8.05;2.53;;;;;;;7.61;100.00;99793.31;5063470;28;20059;-74
2024/01/26 01:51:15;;;;;;;10.30;2.00;;;;;;;7.94;100.00;99734.47;5050973;28;20051;-73
2024/01/26 01:53:42;;;;;;;8.73;2.25;;;;;;;8.41;100.00;99858.38;5056612;28;20052;-73
2024/01/26 01:56:11;;;;;;;9.10;2.08;;;;;;;8.50;100.00;99807.50;5057252;28;20025;-73
2024/01/26 01:58:38;;;;;;;8.43;1.67;;;;;;;8.60;100.00;99826.69;5059521;28;20116;-78
2024/01/26 02:01:04;;;;;;;7.97;2.10;;;;;;;8.01;100.00;99641.50;5059330;28;20907;-73
2024/01/26 02:03:30;;;;;;;6.35;1.88;;;;;;;8.44;100.00;99696.19;5059311;28;20031;-73
2024/01/26 02:05:56;;;;;;;10.00;2.40;;;;;;;7.39;100.00;99555.19;5057582;28;20464;-75
2024/01/26 02:08:21;;;;;;;7.10;2.10;;;;;;;8.34;100.00;99740.31;5063152;28;20028;-74
2024/01/26 02:10:47;;;;;;;10.30;2.35;;;;;;;8.39;100.00;99756.25;5059943;28;20032;-74
2024/01/26 02:13:12;;;;;;;7.30;2.47;;;;;;;8.40;100.00;99744.41;5062961;28;20159;-73
2024/01/26 02:15:38;;;;;;;9.15;2.17;;;;;;;8.05;100.00;99628.75;5055994;28;20040;-73
2024/01/26 02:18:04;;;;;;;6.93;1.98;;;;;;;8.47;100.00;99735.81;5057134;28;20036;-73
2024/01/26 02:20:29;;;;;;;10.00;2.35;;;;;;;7.91;100.00;99620.63;5061985;28;20402;-76
2024/01/26 02:22:55;;;;;;;7.75;2.22;;;;;;;8.37;100.00;99664.28;5064820;28;20034;-73
2024/01/26 02:25:20;;;;;;;9.75;2.42;;;;;;;7.72;100.00;99551.94;5058990;28;20033;-74
2024/01/26 02:27:46;;;;;;;9.25;2.60;;;;;;;8.37;100.00;99669.34;5059034;28;20029;-74
2024/01/26 02:30:12;;;;;;;9.48;2.22;;;;;;;8.36;100.00;99687.94;5057228;28;20033;-74
2024/01/26 02:32:37;;;;;;;8.50;2.30;;;;;;;7.63;100.00;99592.59;5058621;28;20055;-74
2024/01/26 02:35:03;;;;;;;8.02;2.15;;;;;;;8.44;100.00;99700.41;5059334;28;20490;-74
2024/01/26 02:37:29;;;;;;;8.85;2.13;;;;;;;8.17;100.00;99642.81;5054543;28;20044;-73
2024/01/26 02:39:54;;;;;;;9.23;2.33;;;;;;;6.91;100.00;99468.66;5058341;28;20474;-75
2024/01/26 02:42:19;;;;;;;8.82;2.00;;;;;;;8.20;100.00;99651.16;5053412;28;20031;-74
2024/01/26 02:44:45;;;;;;;10.52;2.50;;;;;;;7.59;100.00;99564.88;5061243;28;20483;-74
2024/01/26 02:47:10;;;;;;;8.27;2.10;;;;;;;7.55;100.00;99584.34;5060248;28;20036;-76
2024/01/26 02:49:36;;;;;;;11.27;2.17;;;;;;;7.89;100.00;99667.91;5059112;28;20040;-75
2024/01/26 02:52:01;;;;;;;10.27;3.95;;;;;;;8.16;100.00;99738.16;5054475;28;20025;-75
2024/01/26 02:54:27;;;;;;;11.52;4.28;;;;;;;7.97;100.00;99711.59;5055482;28;20076;-74
2024/01/26 02:56:52;;;;;;;12.25;4.38;;;;;;;7.28;100.00;99648.16;5058122;28;20036;-74
2024/01/26 02:59:18;;;;;;;9.25;3.03;;;;;;;8.23;100.00;99776.84;5058655;28;20090;-74
2024/01/26 03:01:43;;;;;;;6.75;2.25;;;;;;;7.11;100.00;99568.47;5059930;28;20490;-74
2024/01/26 03:04:09;;;;;;;7.32;1.98;;;;;;;8.32;100.00;99719.25;5060180;28;20075;-75
2024/01/26 03:06:35;;;;;;;7.05;2.20;;;;;;;8.35;100.00;99736.94;5057956;28;20483;-74
2024/01/26 03:09:00;;;;;;;8.20;1.83;;;;;;;8.21;100.00;99700.94;5058416;28;20040;-74
2024/01/26 03:11:39;;;;;;;10.68;2.55;;;;;;;7.66;100.00;99657.47;5060675;28;20024;-76
2024/01/26 03:14:05;;;;;;;7.97;3.17;;;;;;;8.20;100.00;99742.28;5062792;28;20028;-74
2024/01/26 03:16:35;;;;;;;10.07;3.13;;;;;;;7.57;100.00;99642.47;5066386;28;20036;-73
2024/01/26 03:19:01;;;;;;;7.72;2.50;;;;;;;8.11;100.00;99737.44;5060179;28;20119;-75
2024/01/26 03:21:27;;;;;;;11.15;3.95;;;;;;;7.74;100.00;99650.56;5052044;28;20112;-75
2024/01/26 03:23:52;;;;;;;10.45;3.72;;;;;;;8.12;100.00;99728.97;5055041;28;20511;-73
2024/01/26 03:26:18;;;;;;;11.98;4.50;;;;;;;8.23;100.00;99736.34;5051553;28;20029;-74
2024/01/26 03:28:43;;;;;;;12.95;3.60;;;;;;;7.39;100.00;99632.78;5061038;28;20046;-74
2024/01/26 03:31:09;;;;;;;8.68;3.15;;;;;;;7.48;100.00;99590.41;5061842;28;20086;-76
2024/01/26 03:33:34;;;;;;;8.13;3.47;;;;;;;8.32;100.00;99731.94;5059700;28;20074;-74
2024/01/26 03:36:00;;;;;;;11.38;4.07;;;;;;;7.66;100.00;99596.75;5054637;28;20040;-74
2024/01/26 03:38:25;;;;;;;9.90;3.10;;;;;;;8.35;100.00;99705.72;5054088;28;20048;-75
2024/01/26 03:40:50;;;;;;;6.85;3.17;;;;;;;7.92;100.00;99634.97;5060632;28;20029;-74
2024/01/26 03:43:16;;;;;;;9.35;3.58;;;;;;;8.32;100.00;99681.28;5059383;28;20041;-74
2024/01/26 03:45:41;;;;;;;9.27;2.40;;;;;;;7.82;100.00;99512.06;5055889;28;20033;-73
2024/01/26 03:48:07;;;;;;;8.10;3.08;;;;;;;7.87;100.00;99515.28;5057164;28;20032;-74
2024/01/26 03:50:33;;;;;;;8.07;2.42;;;;;;;8.52;100.00;99618.31;5059713;28;20025;-73
2024/01/26 03:52:59;;;;;;;7.45;2.20;;;;;;;8.58;100.00;99546.38;5064119;28;20128;-74
2024/01/26 03:55:24;;;;;;;9.10;3.30;;;;;;;8.53;100.00;99568.47;5061588;28;20839;-74
2024/01/26 03:57:50;;;;;;;11.73;5.75;;;;;;;8.51;100.00;99577.81;5060680;28;20105;-74
2024/01/26 04:00:16;;;;;;;8.07;3.50;;;;;;;8.50;100.00;99539.00;5057838;28;20032;-74
2024/01/26 04:02:41;;;;;;;10.30;3.90;;;;;;;8.56;100.00;99489.84;5059137;28;20103;-74
2024/01/26 04:05:07;;;;;;;9.02;4.57;;;;;;;8.48;100.00;99613.34;5060277;28;20050;-73
2024/01/26 04:07:32;;;;;;;10.27;5.13;;;;;;;7.90;100.00;99478.09;5060017;28;20040;-74
2024/01/26 04:09:58;;;;;;;12.10;4.63;;;;;;;8.37;100.00;99562.16;5058497;28;20505;-73
2024/01/26 04:12:23;;;;;;;9.60;3.45;;;;;;;8.47;100.00;99558.50;5061074;28;20175;-74
2024/01/26 04:14:49;;;;;;;8.40;2.83;;;;;;;6.94;100.00;99258.06;5057355;28;20471;-74
2024/01/26 04:17:15;;;;;;;9.90;3.08;;;;;;;8.32;100.00;99482.97;5059971;28;20029;-75
2024/01/26 04:19:40;;;;;;;6.55;2.92;;;;;;;8.41;100.00;99498.72;5060689;28;20470;-74
2024/01/26 04:22:06;;;;;;;11.88;4.40;;;;;;;8.43;100.00;99565.38;5056035;28;20147;-74
2024/01/26 04:24:31;;;;;;;7.10;2.55;;;;;;;8.71;100.00;99429.44;5062875;28;20036;-73
2024/01/26 04:26:57;;;;;;;7.40;2.90;;;;;;;8.53;100.00;99492.50;5060894;28;20039;-75
2024/01/26 04:29:22;;;;;;;7.88;2.78;;;;;;;8.50;100.00;99546.59;5062525;28;20024;-73
2024/01/26 04:31:48;;;;;;;10.75;3.83;;;;;;;7.59;100.00;99345.69;5058821;28;20029;-75
2024/01/26 04:34:13;;;;;;;11.95;4.15;;;;;;;7.97;100.00;99346.34;5062560;28;20029;-72
2024/01/26 04:36:45;;;;;;;12.10;4.63;;;;;;;8.18;100.00;99510.31;5060175;28;20020;-74
2024/01/26 04:39:11;;;;;;;9.63;3.13;;;;;;;7.92;100.00;99398.78;5049691;28;20423;-73
2024/01/26 04:41:37;;;;;;;7.65;2.80;;;;;;;7.76;100.00;99391.59;5057203;28;20456;-73
2024/01/26 04:44:02;;;;;;;8.50;3.05;;;;;;;8.53;100.00;99533.03;5053290;28;20131;-72
2024/01/26 04:46:28;;;;;;;8.70;3.30;;;;;;;7.98;100.00;99457.66;5054635;28;20126;-76
2024/01/26 04:48:53;;;;;;;7.53;2.35;;;;;;;7.66;100.00;99364.06;5055313;28;20086;-73
2024/01/26 04:51:19;;;;;;;9.00;2.42;;;;;;;8.42;100.00;99499.53;5057270;28;20024;-72
2024/01/26 04:53:45;;;;;;;5.40;2.40;;;;;;;8.29;100.00;99471.19;5055077;28;20056;-73
2024/01/26 04:56:13;;;;;;;6.82;2.92;;;;;;;7.85;100.00;99423.41;5052322;28;20483;-75
2024/01/26 04:58:38;;;;;;;5.35;2.30;;;;;;;8.33;100.00;99513.28;5051816;28;20079;-75
2024/01/26 05:01:04;;;;;;;7.53;2.75;;;;;;;7.88;100.00;99467.16;5054269;28;20079;-74
2024/01/26 05:03:30;;;;;;;9.50;2.58;;;;;;;8.08;100.00;99529.94;5053636;28;20146;-74
2024/01/26 05:05:55;;;;;;;6.40;2.33;;;;;;;7.81;100.00;99414.25;5051469;28;20041;-75
2024/01/26 05:08:21;;;;;;;8.07;2.35;;;;;;;8.46;100.00;99550.06;5056278;28;20029;-73
2024/01/26 05:10:46;;;;;;;5.90;2.20;;;;;;;8.61;100.00;99501.56;4700883;28;10000020;-72
2024/01/26 05:13:12;;;;;;;10.52;3.40;;;;;;;8.03;100.00;99409.44;5054785;28;20561;-73
2024/01/26 05:15:37;;;;;;;8.80;3.30;;;;;;;8.45;100.00;99512.13;5057511;28;20041;-76
2024/01/26 05:18:04;;;;;;;8.02;2.70;;;;;;;7.86;100.00;99402.31;5050500;28;20048;-74
2024/01/26 05:20:29;;;;;;;4.68;2.22;;;;;;;7.73;100.00;99346.13;5055958;28;20479;-74
2024/01/26 05:22:55;;;;;;;8.00;2.55;;;;;;;8.49;100.00;99441.09;5052339;28;20028;-74
2024/01/26 05:25:20;;;;;;;8.40;3.22;;;;;;;8.41;100.00;99452.31;5052229;28;20064;-73
2024/01/26 05:27:46;;;;;;;11.32;4.78;;;;;;;8.19;100.00;99524.59;5051145;28;20056;-73
2024/01/26 05:30:12;;;;;;;6.65;3.20;;;;;;;8.28;100.00;99592.78;5055182;28;20033;-73
2024/01/26 05:32:37;;;;;;;5.70;2.70;;;;;;;8.21;100.00;99480.66;5052132;28;20025;-76
2024/01/26 05:35:03;;;;;;;6.45;2.40;;;;;;;8.03;100.00;99405.22;5054184;28;20037;-74
2024/01/26 05:37:29;;;;;;;8.90;3.10;;;;;;;8.06;100.00;99454.94;5049019;28;20074;-75
2024/01/26 05:39:54;;;;;;;7.80;3.22;;;;;;;8.44;100.00;99434.47;5051356;28;20037;-74
2024/01/26 05:42:20;;;;;;;9.88;3.72;;;;;;;8.07;100.00;99497.91;5052090;28;20040;-74
2024/01/26 05:44:45;;;;;;;11.55;4.65;;;;;;;6.96;100.00;99492.13;5068684;28;20056;-74
2024/01/26 05:47:11;;;;;;;12.52;7.50;;;;;;;7.42;100.00;99613.31;5067795;28;20055;-74
2024/01/26 05:49:36;;;;;;;17.00;7.97;;;;;;;6.29;100.00;99524.63;5064363;28;20035;-72
2024/01/26 05:52:02;;;;;;;26.27;11.25;;;;;;;7.17;100.00;99821.09;5062811;28;20028;-74
2024/01/26 05:54:28;;;;;;;26.65;12.68;;;;;;;7.10;100.00;99822.91;5057300;28;20052;-73
2024/01/26 05:56:53;;;;;;;25.13;10.35;;;;;;;6.86;100.00;99752.53;5065973;28;20028;-73
2024/01/26 05:59:19;;;;;;;17.60;9.38;;;;;;;6.77;100.00;99687.03;5059377;28;20063;-74
2024/01/26 06:01:52;;;;;;;18.70;9.35;;;;;;;7.30;100.00;99804.84;5058759;28;20418;-74
2024/01/26 06:04:18;;;;;;;18.90;7.93;;;;;;;7.18;100.00;99812.66;5051556;28;20033;-75
2024/01/26 06:06:44;;;;;;;20.38;8.43;;;;;;;6.80;100.00;99773.69;5052552;28;20568;-72
2024/01/26 06:09:09;;;;;;;22.77;13.40;;;;;;;7.62;100.00;99934.13;5058660;28;20036;-73
2024/01/26 06:11:35;;;;;;;25.90;12.20;;;;;;;7.49;100.00;99947.81;5060704;28;20029;-74
2024/01/26 06:14:00;;;;;;;35.72;21.02;;;;;;;5.78;100.00;99651.56;5064146;28;20079;-75
2024/01/26 06:16:26;;;;;;;33.38;20.20;;;;;;;6.76;100.00;99829.31;5058891;28;20024;-74
2024/01/26 06:18:52;;;;;;;43.58;21.67;;;;;;;7.22;100.00;99973.53;5050322;28;20037;-74
2024/01/26 06:21:18;;;;;;;43.53;24.70;;;;;;;6.89;100.00;99851.84;5055100;28;20029;-74
2024/01/26 06:23:43;;;;;;;72.53;36.92;;;;;;;6.70;100.00;99863.09;5056621;28;20036;-74
2024/01/26 06:26:09;;;;;;;52.75;29.17;;;;;;;7.55;100.00;99973.00;5054606;28;21584;-73
2024/01/26 06:28:35;;;;;;;48.17;24.92;;;;;;;7.20;100.00;100112.59;5054012;28;20037;-72
2024/01/26 06:31:00;;;;;;;51.35;26.50;;;;;;;7.43;100.00;99996.78;5054480;28;20036;-74
2024/01/26 06:33:26;;;;;;;50.10;30.23;;;;;;;7.45;100.00;100027.09;5051154;28;20029;-80
2024/01/26 06:35:51;;;;;;;58.92;36.45;;;;;;;6.95;100.00;99818.09;5054748;28;20044;-74
2024/01/26 06:38:17;;;;;;;59.13;37.08;;;;;;;9.32;100.00;99621.19;5050307;28;20040;-75
2024/01/26 06:40:42;;;;;;;55.97;34.13;;;;;;;12.63;100.00;99326.28;5048550;28;20063;-74
2024/01/26 06:43:08;;;;;;;55.55;33.97;;;;;;;12.95;100.00;99090.88;5052188;28;20056;-74
2024/01/26 06:45:34;;;;;;;53.97;33.15;;;;;;;11.11;100.00;99112.56;5052857;28;20553;-73
2024/01/26 06:48:00;;;;;;;51.03;31.13;;;;;;;14.07;100.00;98849.63;5051884;28;20032;-74
2024/01/26 06:50:26;;;;;;;49.53;30.42;;;;;;;10.72;100.00;99223.56;5054543;28;20089;-81
2024/01/26 06:52:51;;;;;;;48.97;29.08;;;;;;;8.55;100.00;99212.13;5051186;28;20041;-74
2024/01/26 06:55:17;;;;;;;35.17;17.83;;;;;;;8.97;100.00;99299.41;5054807;28;20041;-73
2024/01/26 06:57:43;;;;;;;16.00;9.60;;;;;;;11.48;100.00;98855.50;5052158;28;20037;-73
2024/01/26 07:00:10;;;;;;;19.38;9.98;;;;;;;11.16;100.00;98945.28;5053835;28;20904;-75
2024/01/26 07:02:35;;;;;;;15.93;7.32;;;;;;;11.69;100.00;98670.34;5052859;28;20051;-74
2024/01/26 07:05:01;;;;;;;16.73;9.38;;;;;;;11.99;100.00;98498.06;5051780;28;20037;-72
2024/01/26 07:07:26;;;;;;;17.98;9.38;;;;;;;14.17;100.00;98301.22;5049245;28;20039;-75
2024/01/26 07:09:52;;;;;;;23.75;12.68;;;;;;;12.80;100.00;98301.91;5048143;28;20674;-73
2024/01/26 07:12:17;;;;;;;20.73;11.38;;;;;;;11.80;100.00;98536.50;5050722;28;20035;-74
2024/01/26 07:14:43;;;;;;;20.98;12.07;;;;;;;11.23;100.00;98459.06;5050700;28;20028;-74
2024/01/26 07:17:08;;;;;;;18.65;8.73;;;;;;;11.36;100.00;98581.34;5049383;28;20071;-73
2024/01/26 07:19:34;;;;;;;12.85;5.28;;;;;;;9.86;100.00;98793.75;5054908;28;20609;-73
2024/01/26 07:21:59;;;;;;;10.48;4.57;;;;;;;9.03;100.00;98743.28;5054677;28;20082;-75
2024/01/26 07:24:25;;;;;;;11.70;4.82;;;;;;;8.65;100.00;98811.53;5048625;28;20111;-73
2024/01/26 07:26:50;;;;;;;10.77;4.85;;;;;;;8.55;100.00;98857.53;5048762;28;20032;-75
2024/01/26 07:29:16;;;;;;;13.05;6.28;;;;;;;9.13;100.00;98957.47;5051821;28;20131;-71
2024/01/26 07:31:43;;;;;;;11.77;5.20;;;;;;;9.15;100.00;99008.94;5055864;28;20028;-74
2024/01/26 07:34:08;;;;;;;16.25;8.70;;;;;;;8.80;100.00;99027.97;5052549;28;20546;-72
2024/01/26 07:36:36;;;;;;;16.65;7.70;;;;;;;8.87;100.00;99042.09;5052920;28;20059;-72
2024/01/26 07:39:05;;;;;;;9.55;6.78;;;;;;;8.38;100.00;99020.19;5053268;28;20049;-74
2024/01/26 07:41:31;;;;;;;14.40;7.28;;;;;;;8.79;100.00;99109.13;5050532;28;20037;-71
2024/01/26 07:43:57;;;;;;;13.50;6.78;;;;;;;8.51;100.00;99196.19;5054011;28;20028;-77
2024/01/26 07:46:23;;;;;;;16.10;6.43;;;;;;;9.71;100.00;99120.91;5059071;28;20035;-73
2024/01/26 07:48:48;;;;;;;11.00;4.43;;;;;;;8.42;100.00;99071.56;5055755;28;20045;-75
2024/01/26 07:51:14;;;;;;;21.58;9.93;;;;;;;9.03;100.00;99141.22;5053267;28;20033;-73
2024/01/26 07:53:39;;;;;;;14.95;8.15;;;;;;;9.07;100.00;99163.84;5051846;28;20044;-72
2024/01/26 07:56:06;;;;;;;13.35;6.32;;;;;;;9.10;100.00;99074.19;5059075;28;20037;-74
2024/01/26 07:58:31;;;;;;;13.05;4.53;;;;;;;9.10;100.00;99115.59;5056788;28;20041;-72
2024/01/26 08:00:57;;;;;;;13.45;5.20;;;;;;;8.42;100.00;98977.84;5054384;28;20094;-72
2024/01/26 08:03:22;;;;;;;8.52;3.70;;;;;;;8.86;100.00;99053.09;5056053;28;20421;-73
2024/01/26 08:05:48;;;;;;;8.40;3.45;;;;;;;9.08;100.00;99043.00;5052930;28;20155;-73
2024/01/26 08:08:13;;;;;;;7.30;3.83;;;;;;;8.96;100.00;99053.59;5055707;28;20033;-73
2024/01/26 08:10:38;;;;;;;13.00;5.07;;;;;;;9.28;100.00;98956.88;5055540;28;20033;-76
2024/01/26 08:13:04;;;;;;;7.32;3.63;;;;;;;9.44;100.00;98975.69;5059243;28;20033;-73
2024/01/26 08:15:29;;;;;;;9.43;4.13;;;;;;;8.99;100.00;98909.03;5061799;28;20089;-73
2024/01/26 08:17:55;;;;;;;7.85;3.13;;;;;;;8.00;100.00;98774.38;5059703;28;20482;-72
2024/01/26 08:20:20;;;;;;;7.47;2.90;;;;;;;9.10;100.00;98942.38;5060695;28;20040;-72
2024/01/26 08:22:46;;;;;;;8.85;3.58;;;;;;;9.17;100.00;98920.97;5058544;28;20043;-72
2024/01/26 08:25:11;;;;;;;7.18;3.13;;;;;;;9.10;100.00;98917.84;5058454;28;20033;-72
2024/01/26 08:27:37;;;;;;;9.02;3.28;;;;;;;9.21;100.00;98871.81;5060871;28;20032;-72
2024/01/26 08:30:04;;;;;;;10.45;4.07;;;;;;;9.49;100.00;98897.66;5056519;28;20089;-73
2024/01/26 08:32:31;;;;;;;8.82;2.97;;;;;;;8.97;100.00;98680.16;5056250;28;20045;-73
2024/01/26 08:34:57;;;;;;;8.15;2.70;;;;;;;9.04;100.00;98663.78;5063886;28;20033;-74
2024/01/26 08:37:23;;;;;;;10.52;3.55;;;;;;;9.72;100.00;98785.91;5061445;28;20042;-72
2024/01/26 08:39:48;;;;;;;9.27;3.00;;;;;;;9.25;100.00;98651.00;5059821;28;20025;-74
2024/01/26 08:42:13;;;;;;;6.00;2.55;;;;;;;9.27;100.00;98640.81;5060768;28;20166;-72
2024/01/26 08:44:39;;;;;;;7.55;2.92;;;;;;;9.74;100.00;98722.41;5066022;28;20100;-72
2024/01/26 08:47:06;;;;;;;7.45;2.80;;;;;;;9.79;100.00;98701.00;5060473;28;20041;-71
2024/01/26 08:49:31;;;;;;;7.95;3.20;;;;;;;9.61;100.00;98692.50;5058664;28;20078;-72
2024/01/26 08:51:57;;;;;;;10.25;4.03;;;;;;;9.23;100.00;98616.50;5063294;28;20474;-70
2024/01/26 08:54:24;;;;;;;10.75;3.83;;;;;;;9.75;100.00;98669.03;5065435;28;20105;-71
2024/01/26 08:56:50;;;;;;;6.93;2.97;;;;;;;9.43;100.00;98662.03;5065970;28;20025;-71
2024/01/26 08:59:16;;;;;;;6.40;2.55;;;;;;;9.56;100.00;98711.34;5062211;28;20051;-71
2024/01/26 09:01:41;;;;;;;8.02;3.65;;;;;;;9.56;100.00;98684.28;5061520;28;20041;-73
2024/01/26 09:04:08;;;;;;;13.35;5.70;;;;;;;9.61;100.00;98689.13;5059150;28;20059;-71
2024/01/26 09:06:36;;;;;;;7.15;2.80;;;;;;;9.58;100.00;98712.13;5056597;28;20111;-73
2024/01/26 09:09:02;;;;;;;6.78;3.00;;;;;;;9.10;100.00;98600.16;5066201;28;20059;-72
2024/01/26 09:11:28;;;;;;;7.50;2.75;;;;;;;9.61;100.00;98684.06;5060607;28;20116;-72
2024/01/26 09:13:54;;;;;;;8.90;3.70;;;;;;;9.21;100.00;98572.63;5055448;28;20033;-72
2024/01/26 09:16:19;;;;;;;9.35;2.90;;;;;;;9.79;100.00;98599.47;5057235;28;20095;-72
2024/01/26 09:18:45;;;;;;;5.40;2.60;;;;;;;10.04;100.00;98602.50;5063037;28;20477;-72
2024/01/26 09:21:10;;;;;;;7.47;2.70;;;;;;;9.88;100.00;98588.91;5061446;28;20040;-72
2024/01/26 09:23:37;;;;;;;7.45;3.13;;;;;;;9.91;100.00;98631.91;5057997;28;20120;-72
2024/01/26 09:26:02;;;;;;;6.50;2.75;;;;;;;9.78;100.00;98655.38;5058686;28;20792;-72
2024/01/26 09:28:28;;;;;;;8.00;2.90;;;;;;;10.20;100.00;98683.88;5057405;28;20039;-70
2024/01/26 09:30:54;;;;;;;4.80;2.40;;;;;;;9.48;100.00;98660.16;5058547;28;20036;-73
2024/01/26 09:33:19;;;;;;;6.93;2.42;;;;;;;9.68;100.00;98637.22;5051763;28;20033;-76
2024/01/26 09:35:45;;;;;;;7.35;2.85;;;;;;;9.77;100.00;98710.38;5053261;28;20028;-73
2024/01/26 09:38:11;;;;;;;5.88;3.13;;;;;;;9.77;100.00;98685.00;5051363;28;20178;-70
2024/01/26 09:40:37;;;;;;;9.63;2.85;;;;;;;8.45;100.00;98512.69;5052977;28;20029;-70
2024/01/26 09:43:02;;;;;;;8.10;3.80;;;;;;;9.56;100.00;98694.44;5053946;28;20123;-72
2024/01/26 09:45:29;;;;;;;10.23;4.25;;;;;;;9.60;100.00;98680.72;5053937;28;20029;-72
2024/01/26 09:47:55;;;;;;;8.40;3.67;;;;;;;9.02;100.00;98566.72;5054451;28;20029;-72
2024/01/26 09:50:23;;;;;;;6.22;3.10;;;;;;;9.58;100.00;98666.44;5050635;28;20517;-72
2024/01/26 09:52:50;;;;;;;13.00;3.75;;;;;;;9.93;100.00;98621.66;5052149;28;20035;-74
2024/01/26 09:55:18;;;;;;;11.73;2.88;;;;;;;9.94;100.00;98588.63;5053128;28;20124;-72
2024/01/26 09:57:45;;;;;;;7.65;2.80;;;;;;;9.65;100.00;98472.44;5053088;28;20024;-69
2024/01/26 10:00:11;;;;;;;19.48;4.40;;;;;;;9.94;100.00;98459.16;5053757;28;20025;-69
2024/01/26 10:02:37;;;;;;;15.15;2.83;;;;;;;10.25;100.00;98593.06;5052492;28;20113;-68
2024/01/26 10:05:03;;;;;;;8.68;3.35;;;;;;;10.24;100.00;98643.03;5052705;28;20025;-70
2024/01/26 10:07:28;;;;;;;13.30;4.10;;;;;;;10.38;100.00;98600.00;5054648;28;20050;-69
2024/01/26 10:09:54;;;;;;;8.95;3.40;;;;;;;9.82;100.00;98513.06;5055693;28;20037;-71
2024/01/26 10:12:20;;;;;;;8.55;3.38;;;;;;;9.77;100.00;98483.72;5055698;28;20029;-70
2024/01/26 10:14:46;;;;;;;9.10;4.03;;;;;;;9.63;100.00;98492.00;5050807;28;20036;-72
2024/01/26 10:17:19;;;;;;;9.68;4.05;;;;;;;9.92;100.00;98570.09;4700108;28;10000400;-73
2024/01/26 10:19:46;;;;;;;4.85;2.17;;;;;;;9.95;100.00;98559.78;5048237;28;20032;-72
2024/01/26 10:22:11;;;;;;;9.27;3.17;;;;;;;10.45;100.00;98667.41;5049541;28;20062;-73
2024/01/26 10:24:37;;;;;;;10.85;2.60;;;;;;;9.70;100.00;98559.34;5048090;28;20037;-73
2024/01/26 10:27:03;;;;;;;7.68;2.60;;;;;;;10.29;100.00;98680.91;5046216;28;20039;-74
2024/01/26 10:29:28;;;;;;;6.82;2.65;;;;;;;10.32;100.00;98686.66;5055075;28;20032;-73
2024/01/26 10:31:53;;;;;;;6.15;2.30;;;;;;;10.17;100.00;98697.53;5053884;28;20025;-73
2024/01/26 10:34:19;;;;;;;6.53;2.67;;;;;;;9.55;100.00;98593.00;5056061;28;20052;-72
2024/01/26 10:36:47;;;;;;;7.93;3.28;;;;;;;10.16;100.00;98728.09;5059806;28;20568;-74
2024/01/26 10:39:28;;;;;;;8.18;3.30;;;;;;;9.63;100.00;98605.38;5055211;28;20040;-71
2024/01/26 10:42:03;;;;;;;6.88;2.92;;;;;;;10.17;100.00;98740.72;5054758;28;20055;-75
2024/01/26 10:44:30;;;;;;;8.18;3.70;;;;;;;9.72;100.00;98668.34;5049647;28;20036;-79
2024/01/26 10:46:58;;;;;;;8.23;4.28;;;;;;;9.97;100.00;98730.63;5056196;28;20025;-71
2024/01/26 10:49:25;;;;;;;9.15;4.22;;;;;;;10.11;100.00;98738.47;5047657;28;20052;-75
2024/01/26 10:51:55;;;;;;;10.52;4.82;;;;;;;9.63;100.00;98668.78;5046073;28;20056;-71
2024/01/26 10:54:23;;;;;;;8.90;3.72;;;;;;;10.06;100.00;98698.91;5049881;28;20586;-73
2024/01/26 10:56:49;;;;;;;9.80;3.60;;;;;;;10.03;100.00;98727.78;5047874;28;20033;-72
2024/01/26 10:59:16;;;;;;;8.70;3.17;;;;;;;9.91;100.00;98686.91;5051426;28;20091;-71
2024/01/26 11:01:43;;;;;;;9.00;3.78;;;;;;;9.48;100.00;98630.53;5046677;28;20483;-70
2024/01/26 11:04:11;;;;;;;12.73;3.80;;;;;;;10.03;100.00;98715.09;5047717;28;20056;-73
2024/01/26 11:06:39;;;;;;;8.48;3.75;;;;;;;10.23;100.00;98621.06;5045856;28;20654;-72
2024/01/26 11:09:08;;;;;;;7.85;3.13;;;;;;;10.30;100.00;98571.59;5043941;28;20033;-70
2024/01/26 11:11:38;;;;;;;10.82;5.43;;;;;;;10.14;100.00;98532.63;5051055;28;20028;-74
2024/01/26 11:14:05;;;;;;;12.73;5.30;;;;;;;9.64;100.00;98432.78;5047138;28;20132;-70
2024/01/26 11:16:43;;;;;;;7.75;4.30;;;;;;;10.30;100.00;98462.41;5044587;28;20063;-74
2024/01/26 11:19:21;;;;;;;14.68;6.95;;;;;;;10.41;100.00;98497.41;5052236;28;20047;-71
2024/01/26 11:21:46;;;;;;;15.93;6.68;;;;;;;9.80;100.00;98377.00;5052295;28;20040;-71